Time;durP1;ratioP1;P1;durP2;ratioP2;P2;SDS_P1;SDS_P2;PMS_P1;PMS_P2;Temp;Humidity;BMP_temperature;BMP_pressure;BME280_temperature;BME280_humidity;BME280_pressure;Samples;Min_cycle;Max_cycle;Signal;HPM_P1;HPM_P2
2022/03/30 00:01:26;;;;;;;33.97;13.98;;;;;;;;;;5083719;28;20414;-68
2022/03/30 00:03:53;;;;;;;33.35;13.07;;;;;;;;;;5084183;28;20044;-68
2022/03/30 00:06:20;;;;;;;36.63;14.68;;;;;;;;;;5080726;28;20102;-68
2022/03/30 00:08:47;;;;;;;25.80;13.15;;;;;;;;;;5081259;28;20422;-68
2022/03/30 00:11:16;;;;;;;28.35;13.05;;;;;;;;;;5088561;28;20056;-68
2022/03/30 00:13:43;;;;;;;32.35;13.73;;;;;;;;;;5081642;28;20051;-68
2022/03/30 00:16:12;;;;;;;31.00;13.65;;;;;;;;;;5082215;28;20114;-68
2022/03/30 00:18:39;;;;;;;33.10;13.80;;;;;;;;;;5086772;28;20094;-68
2022/03/30 00:21:06;;;;;;;28.90;13.48;;;;;;;;;;5084688;28;20051;-68
2022/03/30 00:23:34;;;;;;;30.85;13.90;;;;;;;;;;5080231;28;20131;-68
2022/03/30 00:26:01;;;;;;;29.58;13.82;;;;;;;;;;5080113;28;20105;-68
2022/03/30 00:28:30;;;;;;;34.78;14.57;;;;;;;;;;5090354;28;20048;-68
2022/03/30 00:30:57;;;;;;;29.73;13.98;;;;;;;;;;5087578;28;20051;-68
2022/03/30 00:33:25;;;;;;;30.90;14.02;;;;;;;;;;5083118;28;20493;-68
2022/03/30 00:35:52;;;;;;;29.92;15.02;;;;;;;;;;5081104;28;20044;-68
2022/03/30 00:38:19;;;;;;;32.38;14.85;;;;;;;;;;5082630;28;20517;-68
2022/03/30 00:40:48;;;;;;;30.55;15.38;;;;;;;;;;5079901;28;20688;-68
2022/03/30 00:43:15;;;;;;;32.40;16.25;;;;;;;;;;5084202;28;20036;-68
2022/03/30 00:45:44;;;;;;;28.45;14.90;;;;;;;;;;5084701;28;20078;-68
2022/03/30 00:48:11;;;;;;;36.08;15.68;;;;;;;;;;5080928;28;20056;-68
2022/03/30 00:50:39;;;;;;;32.63;15.48;;;;;;;;;;5081975;28;20056;-68
2022/03/30 00:53:06;;;;;;;31.90;15.23;;;;;;;;;;5078904;28;20063;-68
2022/03/30 00:55:34;;;;;;;33.72;14.05;;;;;;;;;;5092335;28;20537;-68
2022/03/30 00:58:01;;;;;;;21.65;9.75;;;;;;;;;;5086186;28;20800;-68
2022/03/30 01:00:28;;;;;;;22.38;8.13;;;;;;;;;;5090213;28;20051;-71
2022/03/30 01:02:57;;;;;;;12.48;4.43;;;;;;;;;;5091164;28;20105;-71
2022/03/30 01:05:24;;;;;;;9.40;3.80;;;;;;;;;;5090390;28;20053;-71
2022/03/30 01:07:51;;;;;;;13.20;3.88;;;;;;;;;;5083936;28;20121;-71
2022/03/30 01:10:19;;;;;;;7.72;3.20;;;;;;;;;;5086980;28;20052;-71
2022/03/30 01:12:52;;;;;;;9.73;2.75;;;;;;;;;;5086306;28;20051;-71
2022/03/30 01:15:20;;;;;;;10.82;3.15;;;;;;;;;;5085475;28;20044;-71
2022/03/30 01:17:47;;;;;;;7.55;2.50;;;;;;;;;;5084172;28;20071;-73
2022/03/30 01:20:17;;;;;;;10.85;3.05;;;;;;;;;;5088539;28;20059;-72
2022/03/30 01:22:46;;;;;;;5.80;2.40;;;;;;;;;;5084816;28;20487;-71
2022/03/30 01:25:13;;;;;;;8.52;2.22;;;;;;;;;;5086361;28;20058;-71
2022/03/30 01:27:40;;;;;;;7.95;2.20;;;;;;;;;;5097633;28;20047;-71
2022/03/30 01:32:58;;;;;;;5.40;1.92;;;;;;;;;;5087437;28;20073;-72
2022/03/30 01:35:25;;;;;;;7.55;2.10;;;;;;;;;;5084071;28;20056;-72
2022/03/30 01:37:53;;;;;;;7.25;1.77;;;;;;;;;;5082681;28;20124;-72
2022/03/30 01:40:21;;;;;;;5.75;1.63;;;;;;;;;;5085128;28;20451;-71
2022/03/30 01:42:48;;;;;;;5.75;1.38;;;;;;;;;;5078869;28;20055;-71
2022/03/30 01:45:16;;;;;;;4.88;1.67;;;;;;;;;;5085644;28;20049;-72
2022/03/30 01:47:48;;;;;;;5.78;1.55;;;;;;;;;;5078631;28;20391;-71
2022/03/30 01:50:16;;;;;;;11.17;1.53;;;;;;;;;;5082143;28;20051;-72
2022/03/30 01:52:43;;;;;;;7.35;1.52;;;;;;;;;;5080046;28;20351;-71
2022/03/30 01:55:12;;;;;;;4.53;0.98;;;;;;;;;;5078091;28;20052;-71
2022/03/30 01:57:39;;;;;;;6.95;1.20;;;;;;;;;;5085365;28;20051;-71
2022/03/30 02:00:07;;;;;;;7.32;0.80;;;;;;;;;;5086218;28;20063;-71
2022/03/30 02:02:34;;;;;;;4.22;0.60;;;;;;;;;;5080885;28;20044;-71
2022/03/30 02:05:02;;;;;;;4.18;0.80;;;;;;;;;;5087385;28;20048;-71
2022/03/30 02:07:29;;;;;;;2.70;0.63;;;;;;;;;;5079146;28;20044;-71
2022/03/30 02:09:56;;;;;;;2.83;0.60;;;;;;;;;;5085039;28;20062;-71
2022/03/30 02:12:25;;;;;;;4.45;0.60;;;;;;;;;;5081692;28;20070;-71
2022/03/30 02:14:53;;;;;;;4.05;0.60;;;;;;;;;;5093145;28;20051;-71
2022/03/30 02:17:23;;;;;;;2.20;0.40;;;;;;;;;;5082770;28;20083;-71
2022/03/30 02:19:50;;;;;;;3.28;0.60;;;;;;;;;;5085614;28;20052;-71
2022/03/30 02:22:17;;;;;;;3.35;0.40;;;;;;;;;;5087104;28;20675;-71
2022/03/30 02:24:44;;;;;;;2.25;0.40;;;;;;;;;;5088512;28;20044;-71
2022/03/30 02:27:11;;;;;;;2.70;0.60;;;;;;;;;;5080476;28;20620;-71
2022/03/30 02:29:40;;;;;;;2.92;0.60;;;;;;;;;;5097011;27;20049;-71
2022/03/30 02:32:08;;;;;;;2.83;0.52;;;;;;;;;;5082029;28;20053;-71
2022/03/30 02:34:35;;;;;;;2.80;0.88;;;;;;;;;;5081165;28;20418;-71
2022/03/30 02:37:02;;;;;;;4.90;0.60;;;;;;;;;;5085212;28;20056;-73
2022/03/30 02:39:29;;;;;;;4.47;0.47;;;;;;;;;;5083672;28;20060;-72
2022/03/30 02:41:57;;;;;;;7.72;0.80;;;;;;;;;;5084321;28;20044;-72
2022/03/30 02:44:24;;;;;;;6.68;0.50;;;;;;;;;;5085116;28;20055;-72
2022/03/30 02:46:52;;;;;;;2.10;0.40;;;;;;;;;;5084557;28;20113;-72
2022/03/30 02:49:20;;;;;;;7.32;0.65;;;;;;;;;;5084953;28;20051;-72
2022/03/30 02:51:47;;;;;;;2.75;0.50;;;;;;;;;;5086529;28;20051;-72
2022/03/30 02:54:14;;;;;;;3.50;0.47;;;;;;;;;;5086244;28;20048;-72
2022/03/30 02:56:41;;;;;;;1.88;0.40;;;;;;;;;;5084547;28;20564;-72
2022/03/30 02:59:08;;;;;;;1.58;0.35;;;;;;;;;;5083301;28;20048;-72
2022/03/30 03:01:36;;;;;;;1.70;0.57;;;;;;;;;;5084523;28;20055;-72
2022/03/30 03:04:04;;;;;;;3.55;0.45;;;;;;;;;;5082687;28;20117;-72
2022/03/30 03:06:32;;;;;;;1.13;0.35;;;;;;;;;;5085723;28;20044;-72
2022/03/30 03:08:59;;;;;;;4.00;0.70;;;;;;;;;;5078090;28;20056;-72
2022/03/30 03:11:29;;;;;;;1.90;0.40;;;;;;;;;;5079878;28;20055;-72
2022/03/30 03:13:56;;;;;;;2.17;0.47;;;;;;;;;;5084336;28;20043;-72
2022/03/30 03:16:23;;;;;;;4.63;0.70;;;;;;;;;;5084776;28;20790;-72
2022/03/30 03:18:50;;;;;;;3.63;0.60;;;;;;;;;;5087449;28;20051;-72
2022/03/30 03:21:19;;;;;;;2.28;0.50;;;;;;;;;;5083282;28;20055;-72
2022/03/30 03:23:46;;;;;;;2.17;0.50;;;;;;;;;;5079074;28;20059;-72
2022/03/30 03:26:13;;;;;;;4.18;0.60;;;;;;;;;;5087056;28;20144;-72
2022/03/30 03:28:40;;;;;;;2.67;0.47;;;;;;;;;;5077744;28;20075;-72
2022/03/30 03:31:08;;;;;;;1.65;0.40;;;;;;;;;;5084173;28;20044;-72
2022/03/30 03:33:35;;;;;;;4.18;1.05;;;;;;;;;;5082655;28;20045;-72
2022/03/30 03:36:02;;;;;;;2.97;0.70;;;;;;;;;;5079803;28;20056;-72
2022/03/30 03:38:31;;;;;;;2.97;0.80;;;;;;;;;;5081315;28;20461;-72
2022/03/30 03:40:58;;;;;;;3.58;0.75;;;;;;;;;;5081919;28;20060;-72
2022/03/30 03:43:25;;;;;;;6.07;1.15;;;;;;;;;;5084113;28;20048;-73
2022/03/30 03:45:52;;;;;;;3.70;0.70;;;;;;;;;;5083888;28;20056;-73
2022/03/30 03:48:20;;;;;;;3.03;0.63;;;;;;;;;;5083416;28;20048;-72
2022/03/30 03:50:47;;;;;;;4.00;0.65;;;;;;;;;;5077052;28;20056;-72
2022/03/30 03:53:14;;;;;;;5.78;0.90;;;;;;;;;;5084113;28;20056;-72
2022/03/30 03:55:43;;;;;;;4.25;0.90;;;;;;;;;;5078637;28;20056;-72
2022/03/30 03:58:11;;;;;;;3.53;0.80;;;;;;;;;;5085382;28;20055;-72
2022/03/30 04:00:38;;;;;;;4.85;1.20;;;;;;;;;;5079844;28;20098;-72
2022/03/30 04:03:05;;;;;;;5.72;0.98;;;;;;;;;;5080006;28;20056;-72
2022/03/30 04:05:33;;;;;;;4.47;1.08;;;;;;;;;;5082214;28;20051;-72
2022/03/30 04:08:00;;;;;;;2.97;1.00;;;;;;;;;;5081126;28;20155;-72
2022/03/30 04:10:28;;;;;;;3.08;1.05;;;;;;;;;;5080030;28;20047;-72
2022/03/30 04:12:56;;;;;;;2.45;0.80;;;;;;;;;;5079885;28;20255;-72
2022/03/30 04:15:23;;;;;;;5.78;1.00;;;;;;;;;;5081211;28;20196;-72
2022/03/30 04:17:52;;;;;;;5.43;0.93;;;;;;;;;;5083639;28;20487;-72
2022/03/30 04:20:20;;;;;;;5.22;0.98;;;;;;;;;;5086638;28;20855;-72
2022/03/30 04:22:47;;;;;;;5.10;1.08;;;;;;;;;;5086609;28;20065;-72
2022/03/30 04:25:15;;;;;;;5.97;1.25;;;;;;;;;;5087211;28;20052;-72
2022/03/30 04:27:46;;;;;;;5.30;1.50;;;;;;;;;;5081750;28;20403;-72
2022/03/30 04:30:15;;;;;;;3.28;0.95;;;;;;;;;;5085802;28;20154;-72
2022/03/30 04:32:42;;;;;;;4.45;0.93;;;;;;;;;;5085169;28;20102;-72
2022/03/30 04:35:11;;;;;;;4.82;1.35;;;;;;;;;;5088720;28;20498;-72
2022/03/30 04:37:39;;;;;;;5.50;1.70;;;;;;;;;;5083691;28;20148;-72
2022/03/30 04:40:07;;;;;;;3.97;1.20;;;;;;;;;;5089153;28;20078;-72
2022/03/30 04:42:34;;;;;;;3.03;1.05;;;;;;;;;;5086737;28;20131;-72
2022/03/30 04:45:01;;;;;;;6.10;1.30;;;;;;;;;;5085747;28;21312;-72
2022/03/30 04:47:32;;;;;;;5.47;1.08;;;;;;;;;;5081047;28;20088;-72
2022/03/30 04:49:59;;;;;;;6.15;1.13;;;;;;;;;;5086579;28;20059;-72
2022/03/30 04:52:26;;;;;;;5.10;1.10;;;;;;;;;;5087720;28;20075;-72
2022/03/30 04:54:54;;;;;;;4.45;1.10;;;;;;;;;;5083467;28;20087;-72
2022/03/30 04:57:21;;;;;;;5.60;0.88;;;;;;;;;;5084224;28;20483;-72
2022/03/30 04:59:48;;;;;;;5.45;0.98;;;;;;;;;;5087146;28;20055;-72
2022/03/30 05:02:16;;;;;;;8.98;1.77;;;;;;;;;;5076464;28;20051;-72
2022/03/30 05:04:44;;;;;;;15.65;7.07;;;;;;;;;;5078955;28;20051;-72
2022/03/30 05:07:13;;;;;;;12.77;5.95;;;;;;;;;;5081307;28;20056;-72
2022/03/30 05:09:40;;;;;;;12.18;2.67;;;;;;;;;;5080662;28;20131;-72
2022/03/30 05:12:07;;;;;;;4.90;1.17;;;;;;;;;;5084171;28;20105;-72
2022/03/30 05:14:35;;;;;;;7.10;1.30;;;;;;;;;;5082193;28;20699;-72
2022/03/30 05:17:02;;;;;;;4.07;0.90;;;;;;;;;;5085458;28;20052;-72
2022/03/30 05:19:29;;;;;;;7.47;1.13;;;;;;;;;;5084390;28;20744;-72
2022/03/30 05:21:58;;;;;;;5.50;1.00;;;;;;;;;;5086519;28;20314;-72
2022/03/30 05:24:25;;;;;;;8.95;1.10;;;;;;;;;;5074834;28;20040;-72
2022/03/30 05:26:53;;;;;;;7.25;1.08;;;;;;;;;;5080117;28;20067;-72
2022/03/30 05:29:20;;;;;;;7.82;0.70;;;;;;;;;;5079878;28;20089;-72
2022/03/30 05:31:48;;;;;;;7.88;1.58;;;;;;;;;;5075370;28;20469;-73
2022/03/30 05:34:15;;;;;;;6.95;0.80;;;;;;;;;;5076813;28;20047;-72
2022/03/30 05:36:42;;;;;;;4.35;1.00;;;;;;;;;;5090847;28;20624;-72
2022/03/30 05:39:11;;;;;;;6.32;0.85;;;;;;;;;;5082791;28;20071;-72
2022/03/30 05:41:38;;;;;;;7.03;1.05;;;;;;;;;;5078225;28;20047;-71
2022/03/30 05:44:05;;;;;;;7.82;1.05;;;;;;;;;;5079609;28;20052;-72
2022/03/30 05:46:34;;;;;;;10.40;1.17;;;;;;;;;;5083185;28;20105;-72
2022/03/30 05:49:02;;;;;;;8.52;1.20;;;;;;;;;;5084092;28;20082;-72
2022/03/30 05:51:29;;;;;;;9.02;1.45;;;;;;;;;;5082707;28;20771;-72
2022/03/30 05:53:56;;;;;;;7.45;1.10;;;;;;;;;;5076544;28;20062;-73
2022/03/30 05:59:06;;;;;;;8.25;1.42;;;;;;;;;;5084733;28;20400;-72
2022/03/30 06:01:34;;;;;;;9.68;1.35;;;;;;;;;;5082954;28;20083;-72
2022/03/30 06:04:01;;;;;;;7.68;0.93;;;;;;;;;;5083184;28;20070;-72
2022/03/30 06:06:28;;;;;;;10.07;1.58;;;;;;;;;;5083455;28;20131;-72
2022/03/30 06:08:55;;;;;;;6.72;1.15;;;;;;;;;;5095757;28;20069;-72
2022/03/30 06:11:23;;;;;;;7.07;1.27;;;;;;;;;;5077838;28;20101;-72
2022/03/30 06:13:51;;;;;;;3.47;1.00;;;;;;;;;;5074678;28;20060;-73
2022/03/30 06:16:19;;;;;;;5.15;0.98;;;;;;;;;;5079880;28;20044;-72
2022/03/30 06:18:46;;;;;;;4.32;1.17;;;;;;;;;;5073382;28;20040;-72
2022/03/30 06:21:14;;;;;;;9.20;1.35;;;;;;;;;;5085596;28;20056;-72
2022/03/30 06:23:41;;;;;;;9.93;1.30;;;;;;;;;;5079500;28;20140;-73
2022/03/30 06:26:09;;;;;;;8.93;1.05;;;;;;;;;;5083925;28;20142;-72
2022/03/30 06:28:36;;;;;;;5.63;0.93;;;;;;;;;;5083752;28;20064;-72
2022/03/30 06:31:05;;;;;;;5.55;1.05;;;;;;;;;;5084822;28;20055;-72
2022/03/30 06:33:32;;;;;;;12.00;1.20;;;;;;;;;;5087439;28;20521;-72
2022/03/30 06:35:59;;;;;;;6.88;1.20;;;;;;;;;;5091834;28;20074;-72
2022/03/30 06:38:26;;;;;;;5.13;0.90;;;;;;;;;;5076766;28;20039;-72
2022/03/30 06:40:54;;;;;;;4.60;1.17;;;;;;;;;;5081088;28;20518;-72
2022/03/30 06:43:21;;;;;;;13.85;1.27;;;;;;;;;;5078495;28;20491;-72
2022/03/30 06:45:50;;;;;;;12.10;1.00;;;;;;;;;;5074968;28;20054;-72
2022/03/30 06:48:18;;;;;;;5.72;1.15;;;;;;;;;;5076296;28;20121;-72
2022/03/30 06:50:46;;;;;;;4.93;0.90;;;;;;;;;;5076625;28;20048;-72
2022/03/30 06:53:13;;;;;;;6.43;1.00;;;;;;;;;;5072102;28;20060;-72
2022/03/30 06:55:40;;;;;;;8.40;1.15;;;;;;;;;;5067794;28;20102;-73
2022/03/30 06:58:08;;;;;;;8.95;1.30;;;;;;;;;;5071843;28;20391;-73
2022/03/30 07:00:35;;;;;;;7.55;1.10;;;;;;;;;;5074943;28;20052;-73
2022/03/30 07:03:03;;;;;;;8.43;1.45;;;;;;;;;;5072276;28;20048;-73
2022/03/30 07:05:32;;;;;;;8.32;1.42;;;;;;;;;;5070894;28;20117;-73
2022/03/30 07:10:44;;;;;;;10.32;1.45;;;;;;;;;;5075153;28;20051;-73
2022/03/30 07:13:11;;;;;;;6.20;0.93;;;;;;;;;;5082438;28;20060;-72
2022/03/30 07:15:39;;;;;;;5.20;1.00;;;;;;;;;;5076975;28;20242;-72
2022/03/30 07:18:08;;;;;;;11.13;1.42;;;;;;;;;;5078579;28;20133;-72
2022/03/30 07:20:37;;;;;;;6.45;1.30;;;;;;;;;;5084250;28;20207;-72
2022/03/30 07:23:05;;;;;;;11.80;1.10;;;;;;;;;;5083732;28;20052;-73
2022/03/30 07:25:32;;;;;;;5.22;0.85;;;;;;;;;;5084110;28;20044;-72
2022/03/30 07:28:02;;;;;;;12.18;1.25;;;;;;;;;;5101078;28;20068;-72
2022/03/30 07:30:29;;;;;;;6.53;0.90;;;;;;;;;;5082307;28;20051;-72
2022/03/30 07:32:57;;;;;;;4.82;0.80;;;;;;;;;;5083302;28;20461;-72
2022/03/30 07:35:27;;;;;;;9.50;1.60;;;;;;;;;;5082205;28;20056;-72
2022/03/30 07:37:56;;;;;;;6.13;0.85;;;;;;;;;;5080849;28;20063;-72
2022/03/30 07:40:24;;;;;;;10.85;1.45;;;;;;;;;;5079770;28;20055;-72
2022/03/30 07:42:54;;;;;;;12.55;1.02;;;;;;;;;;5083331;28;20048;-73
2022/03/30 07:45:21;;;;;;;12.15;1.10;;;;;;;;;;5084289;28;20067;-73
2022/03/30 07:47:49;;;;;;;9.45;1.48;;;;;;;;;;5084751;28;20056;-73
2022/03/30 07:50:16;;;;;;;7.70;0.90;;;;;;;;;;5077671;28;20043;-73
2022/03/30 07:52:43;;;;;;;6.13;0.88;;;;;;;;;;5086635;28;20490;-73
2022/03/30 07:55:13;;;;;;;7.35;1.02;;;;;;;;;;5084066;28;20052;-73
2022/03/30 07:57:42;;;;;;;6.53;1.25;;;;;;;;;;5088110;28;20052;-72
2022/03/30 08:00:12;;;;;;;5.22;1.13;;;;;;;;;;5088051;28;20109;-72
2022/03/30 08:02:39;;;;;;;5.00;0.95;;;;;;;;;;5087646;28;20105;-72
2022/03/30 08:05:10;;;;;;;12.77;1.15;;;;;;;;;;5085528;28;20040;-72
2022/03/30 08:07:37;;;;;;;9.60;0.90;;;;;;;;;;5087664;28;20084;-72
2022/03/30 08:10:05;;;;;;;7.45;0.90;;;;;;;;;;5087812;28;20067;-72
2022/03/30 08:12:34;;;;;;;4.57;0.70;;;;;;;;;;5085768;28;20044;-72
2022/03/30 08:15:01;;;;;;;4.63;0.70;;;;;;;;;;5101137;28;20048;-72
2022/03/30 08:17:29;;;;;;;10.07;0.80;;;;;;;;;;5087937;28;20510;-72
2022/03/30 08:19:57;;;;;;;7.82;1.17;;;;;;;;;;5082277;28;20061;-72
2022/03/30 08:22:27;;;;;;;7.80;1.00;;;;;;;;;;5081432;28;20135;-72
2022/03/30 08:24:56;;;;;;;7.05;0.85;;;;;;;;;;5078713;28;20084;-73
2022/03/30 08:27:24;;;;;;;7.70;1.00;;;;;;;;;;5073859;28;20406;-73
2022/03/30 08:29:53;;;;;;;4.68;0.70;;;;;;;;;;5074883;28;20048;-72
2022/03/30 08:32:22;;;;;;;3.00;0.50;;;;;;;;;;5076583;28;20048;-72
2022/03/30 08:34:50;;;;;;;3.40;0.70;;;;;;;;;;5082252;28;20044;-72
2022/03/30 08:37:17;;;;;;;5.85;0.98;;;;;;;;;;5086948;28;20047;-72
2022/03/30 08:39:44;;;;;;;5.15;1.23;;;;;;;;;;5089514;28;20056;-73
2022/03/30 08:42:13;;;;;;;5.97;0.82;;;;;;;;;;5087308;28;20059;-72
2022/03/30 08:44:41;;;;;;;4.43;0.60;;;;;;;;;;5087031;28;20087;-73
2022/03/30 08:47:11;;;;;;;8.35;0.93;;;;;;;;;;5086163;28;20483;-73
2022/03/30 08:49:38;;;;;;;3.47;0.95;;;;;;;;;;5087051;28;20127;-73
2022/03/30 08:52:07;;;;;;;4.53;0.88;;;;;;;;;;5087935;28;20105;-73
2022/03/30 08:54:35;;;;;;;8.32;1.00;;;;;;;;;;5085467;28;20048;-73
2022/03/30 08:57:02;;;;;;;4.15;0.60;;;;;;;;;;5083345;28;20521;-73
2022/03/30 08:59:30;;;;;;;3.38;0.60;;;;;;;;;;5086747;28;20814;-73
2022/03/30 09:01:58;;;;;;;4.22;0.77;;;;;;;;;;5087875;28;21089;-73
2022/03/30 09:04:27;;;;;;;5.32;0.80;;;;;;;;;;5076571;28;20059;-73
2022/03/30 09:06:55;;;;;;;3.75;0.65;;;;;;;;;;5077906;28;20052;-72
2022/03/30 09:09:29;;;;;;;4.00;0.55;;;;;;;;;;5086382;28;20083;-73
2022/03/30 09:11:57;;;;;;;4.57;0.60;;;;;;;;;;5083252;28;20052;-73
2022/03/30 09:14:26;;;;;;;5.68;0.73;;;;;;;;;;5083747;28;20049;-73
2022/03/30 09:16:55;;;;;;;3.45;0.40;;;;;;;;;;5084291;28;20553;-73
2022/03/30 09:19:23;;;;;;;6.85;0.52;;;;;;;;;;5088574;28;20123;-73
2022/03/30 09:21:52;;;;;;;4.45;0.73;;;;;;;;;;5085395;28;20075;-73
2022/03/30 09:24:20;;;;;;;2.50;0.60;;;;;;;;;;5086007;28;20044;-73
2022/03/30 09:26:48;;;;;;;1.73;0.50;;;;;;;;;;5085715;28;20040;-73
2022/03/30 09:29:16;;;;;;;2.67;0.50;;;;;;;;;;5081730;28;20156;-73
2022/03/30 09:31:43;;;;;;;3.60;0.57;;;;;;;;;;5084272;28;20048;-73
2022/03/30 09:34:11;;;;;;;4.75;0.93;;;;;;;;;;5084534;28;20088;-73
2022/03/30 09:36:39;;;;;;;4.80;0.55;;;;;;;;;;5084270;28;20048;-73
2022/03/30 09:39:08;;;;;;;3.38;0.50;;;;;;;;;;5086062;28;20052;-73
2022/03/30 09:41:49;;;;;;;5.57;0.70;;;;;;;;;;5083843;28;20055;-73
2022/03/30 09:44:17;;;;;;;4.65;0.50;;;;;;;;;;5084565;28;20083;-72
2022/03/30 09:46:58;;;;;;;6.80;0.65;;;;;;;;;;5083564;28;20048;-73
2022/03/30 09:49:36;;;;;;;5.20;0.70;;;;;;;;;;5080912;28;20064;-73
2022/03/30 09:52:03;;;;;;;4.40;0.75;;;;;;;;;;5077131;28;20059;-73
2022/03/30 09:54:39;;;;;;;7.30;0.70;;;;;;;;;;5079817;28;20055;-73
2022/03/30 09:57:10;;;;;;;4.53;0.85;;;;;;;;;;5074803;28;20047;-73
2022/03/30 09:59:52;;;;;;;3.38;0.75;;;;;;;;;;5075189;28;20063;-73
2022/03/30 10:02:19;;;;;;;1.85;0.43;;;;;;;;;;5074213;28;20053;-73
2022/03/30 10:04:46;;;;;;;5.22;0.77;;;;;;;;;;5084639;28;20493;-73
2022/03/30 10:07:14;;;;;;;3.83;0.63;;;;;;;;;;5102130;27;20502;-73
2022/03/30 10:09:43;;;;;;;2.97;0.60;;;;;;;;;;5085011;28;20048;-73
2022/03/30 10:12:12;;;;;;;5.75;0.80;;;;;;;;;;5083393;28;20117;-73
2022/03/30 10:14:41;;;;;;;4.15;0.70;;;;;;;;;;5083829;28;20044;-73
2022/03/30 10:17:08;;;;;;;3.58;0.90;;;;;;;;;;5086718;28;20051;-73
2022/03/30 10:19:35;;;;;;;10.02;0.88;;;;;;;;;;5082644;28;20106;-73
2022/03/30 10:22:07;;;;;;;5.88;0.77;;;;;;;;;;5084808;28;20113;-73
2022/03/30 10:24:44;;;;;;;5.43;0.65;;;;;;;;;;5088076;28;20105;-73
2022/03/30 10:27:13;;;;;;;7.13;0.98;;;;;;;;;;5085459;28;20055;-73
2022/03/30 10:29:48;;;;;;;4.68;0.90;;;;;;;;;;5098378;27;20063;-73
2022/03/30 10:32:16;;;;;;;10.48;1.38;;;;;;;;;;5085851;28;20051;-73
2022/03/30 10:34:50;;;;;;;4.43;0.90;;;;;;;;;;5085174;28;20052;-73
2022/03/30 10:37:24;;;;;;;6.30;1.02;;;;;;;;;;5082843;28;20056;-73
2022/03/30 10:39:57;;;;;;;4.53;0.70;;;;;;;;;;5083024;28;20060;-73
2022/03/30 10:42:24;;;;;;;4.22;1.00;;;;;;;;;;5085373;28;20052;-73
2022/03/30 10:44:57;;;;;;;3.85;0.75;;;;;;;;;;5083598;28;20044;-73
2022/03/30 10:47:26;;;;;;;6.05;1.00;;;;;;;;;;5085281;28;20109;-73
2022/03/30 10:49:55;;;;;;;5.68;0.93;;;;;;;;;;5084037;28;20055;-73
2022/03/30 10:52:27;;;;;;;4.15;0.95;;;;;;;;;;5079784;28;20535;-73
2022/03/30 10:55:14;;;;;;;12.13;0.93;;;;;;;;;;5084569;28;20055;-74
2022/03/30 10:57:47;;;;;;;5.53;1.00;;;;;;;;;;5086558;28;20060;-74
2022/03/30 11:00:18;;;;;;;5.38;0.90;;;;;;;;;;5074297;28;20048;-74
2022/03/30 11:02:45;;;;;;;3.53;0.75;;;;;;;;;;5073640;28;20131;-74
2022/03/30 11:05:13;;;;;;;8.23;1.05;;;;;;;;;;5082665;28;20109;-73
2022/03/30 11:07:41;;;;;;;7.47;1.10;;;;;;;;;;5089355;28;20059;-73
2022/03/30 11:10:15;;;;;;;5.88;0.70;;;;;;;;;;5080531;28;20055;-73
2022/03/30 11:12:57;;;;;;;7.50;1.27;;;;;;;;;;5072778;28;20694;-73
2022/03/30 11:15:26;;;;;;;3.97;0.93;;;;;;;;;;5075694;28;20052;-74
2022/03/30 11:17:56;;;;;;;6.88;1.02;;;;;;;;;;5075938;28;20055;-73
2022/03/30 11:20:24;;;;;;;3.50;0.90;;;;;;;;;;5072201;28;20114;-73
2022/03/30 11:22:51;;;;;;;5.53;0.98;;;;;;;;;;5072377;28;20106;-74
2022/03/30 11:25:20;;;;;;;4.60;0.90;;;;;;;;;;5066727;28;20056;-74
2022/03/30 11:28:09;;;;;;;5.90;1.20;;;;;;;;;;5073147;28;20522;-74
2022/03/30 11:30:43;;;;;;;3.17;0.80;;;;;;;;;;5072410;28;20154;-74
2022/03/30 11:33:22;;;;;;;4.82;0.90;;;;;;;;;;5079713;28;20083;-74
2022/03/30 11:35:49;;;;;;;4.82;1.02;;;;;;;;;;5077061;28;20051;-73
2022/03/30 11:38:28;;;;;;;3.80;0.75;;;;;;;;;;5081483;28;20059;-74
2022/03/30 11:40:59;;;;;;;6.45;1.10;;;;;;;;;;5097052;28;20821;-74
2022/03/30 11:43:26;;;;;;;10.20;1.17;;;;;;;;;;5081088;28;20050;-74
2022/03/30 11:45:55;;;;;;;6.38;0.90;;;;;;;;;;5074309;28;20055;-74
2022/03/30 11:48:22;;;;;;;4.35;1.00;;;;;;;;;;5084965;28;20105;-74
2022/03/30 11:50:50;;;;;;;4.30;1.00;;;;;;;;;;5082642;28;20056;-74
2022/03/30 11:53:20;;;;;;;5.10;0.85;;;;;;;;;;5081014;28;20131;-74
2022/03/30 11:55:53;;;;;;;5.13;0.75;;;;;;;;;;5080209;28;20055;-74
2022/03/30 11:58:24;;;;;;;3.63;1.05;;;;;;;;;;5082124;28;20117;-74
2022/03/30 12:00:52;;;;;;;4.07;0.90;;;;;;;;;;5077691;28;20080;-74
2022/03/30 12:03:21;;;;;;;6.53;1.00;;;;;;;;;;5077605;28;20054;-74
2022/03/30 12:05:51;;;;;;;4.95;1.23;;;;;;;;;;5075265;28;20044;-74
2022/03/30 12:08:19;;;;;;;7.85;1.10;;;;;;;;;;5097034;28;20108;-74
2022/03/30 12:10:48;;;;;;;6.68;1.10;;;;;;;;;;5081768;28;20858;-74
2022/03/30 12:13:22;;;;;;;3.15;0.70;;;;;;;;;;5083252;28;20052;-74
2022/03/30 12:16:00;;;;;;;5.55;1.10;;;;;;;;;;5081116;28;20045;-74
2022/03/30 12:18:29;;;;;;;6.15;1.00;;;;;;;;;;5081473;28;20051;-74
2022/03/30 12:20:56;;;;;;;7.90;1.17;;;;;;;;;;5081150;28;20056;-74
2022/03/30 12:23:23;;;;;;;5.60;1.00;;;;;;;;;;5081488;28;20060;-73
2022/03/30 12:25:50;;;;;;;4.45;1.10;;;;;;;;;;5094095;28;20043;-74
2022/03/30 12:28:28;;;;;;;5.22;1.17;;;;;;;;;;5082517;28;20127;-74
2022/03/30 12:30:56;;;;;;;5.70;1.20;;;;;;;;;;5078650;28;20052;-74
2022/03/30 12:33:23;;;;;;;4.63;1.00;;;;;;;;;;5084088;28;20063;-74
2022/03/30 12:35:53;;;;;;;5.43;0.90;;;;;;;;;;5069485;28;20565;-74
2022/03/30 12:38:21;;;;;;;4.43;0.93;;;;;;;;;;5083467;28;20059;-74
2022/03/30 12:40:52;;;;;;;4.35;1.08;;;;;;;;;;5081072;28;20044;-74
2022/03/30 12:43:23;;;;;;;3.90;0.90;;;;;;;;;;5090841;28;20066;-74
2022/03/30 12:45:56;;;;;;;7.00;1.27;;;;;;;;;;5084338;28;20052;-73
2022/03/30 12:48:28;;;;;;;6.38;0.90;;;;;;;;;;5079482;28;20067;-73
2022/03/30 12:50:59;;;;;;;5.85;0.88;;;;;;;;;;5080941;28;20139;-73
2022/03/30 12:53:34;;;;;;;5.43;0.90;;;;;;;;;;5079832;28;20779;-73
2022/03/30 12:56:11;;;;;;;6.65;1.05;;;;;;;;;;5090165;28;20106;-73
2022/03/30 12:58:50;;;;;;;105.22;4.28;;;;;;;;;;5079622;28;20044;-73
2022/03/30 13:01:28;;;;;;;14.90;1.13;;;;;;;;;;5075713;28;20095;-73
2022/03/30 13:03:55;;;;;;;12.18;1.10;;;;;;;;;;5080335;28;20059;-73
2022/03/30 13:06:25;;;;;;;5.78;0.82;;;;;;;;;;5086526;28;20043;-73
2022/03/30 13:09:08;;;;;;;7.10;0.90;;;;;;;;;;5077191;28;20052;-73
2022/03/30 13:11:41;;;;;;;4.82;0.60;;;;;;;;;;5075382;28;20413;-73
2022/03/30 13:14:11;;;;;;;17.83;1.10;;;;;;;;;;5072724;28;20135;-73
2022/03/30 13:16:38;;;;;;;8.77;0.90;;;;;;;;;;5072629;28;20250;-73
2022/03/30 13:19:07;;;;;;;5.03;0.73;;;;;;;;;;5073947;28;20055;-73
2022/03/30 13:21:41;;;;;;;12.80;1.08;;;;;;;;;;5073564;28;20051;-73
2022/03/30 13:24:12;;;;;;;6.60;0.88;;;;;;;;;;5074322;28;20059;-73
2022/03/30 13:26:40;;;;;;;6.00;0.90;;;;;;;;;;5091996;28;20079;-74
2022/03/30 13:29:08;;;;;;;9.35;1.00;;;;;;;;;;5090926;27;20056;-73
2022/03/30 13:31:39;;;;;;;9.55;1.08;;;;;;;;;;5077513;28;20055;-74
2022/03/30 13:34:07;;;;;;;5.57;1.33;;;;;;;;;;5078055;28;20078;-74
2022/03/30 13:36:34;;;;;;;10.75;1.10;;;;;;;;;;5076561;28;20486;-74
2022/03/30 13:39:04;;;;;;;5.63;0.80;;;;;;;;;;5074526;28;20040;-74
2022/03/30 13:41:31;;;;;;;5.57;1.00;;;;;;;;;;5090010;28;20055;-74
2022/03/30 13:43:58;;;;;;;3.95;0.80;;;;;;;;;;5078746;28;20056;-74
2022/03/30 13:46:26;;;;;;;3.63;0.98;;;;;;;;;;5075537;28;20097;-74
2022/03/30 13:48:53;;;;;;;5.55;0.93;;;;;;;;;;5074588;28;20071;-73
2022/03/30 13:51:20;;;;;;;3.22;0.93;;;;;;;;;;5075291;28;20544;-73
2022/03/30 13:53:48;;;;;;;7.57;0.80;;;;;;;;;;5084015;28;20059;-74
2022/03/30 13:56:17;;;;;;;5.88;0.82;;;;;;;;;;5077041;28;20100;-73
2022/03/30 13:58:45;;;;;;;3.13;0.80;;;;;;;;;;5073631;28;20768;-73
2022/03/30 14:01:13;;;;;;;5.75;0.95;;;;;;;;;;5076323;28;20127;-73
2022/03/30 14:03:40;;;;;;;7.72;1.02;;;;;;;;;;5076557;28;20155;-74
2022/03/30 14:06:08;;;;;;;4.40;0.80;;;;;;;;;;5075610;28;20056;-74
2022/03/30 14:08:35;;;;;;;5.47;1.10;;;;;;;;;;5077409;28;20384;-74
2022/03/30 14:11:02;;;;;;;5.50;1.23;;;;;;;;;;5075979;28;20048;-73
2022/03/30 14:13:31;;;;;;;6.47;1.05;;;;;;;;;;5075889;28;20044;-73
2022/03/30 14:15:58;;;;;;;3.45;0.68;;;;;;;;;;5077348;28;20060;-73
2022/03/30 14:18:27;;;;;;;8.32;1.10;;;;;;;;;;5090011;28;20052;-73
2022/03/30 14:20:55;;;;;;;6.22;0.82;;;;;;;;;;5075802;28;20060;-73
2022/03/30 14:23:22;;;;;;;4.28;0.63;;;;;;;;;;5081231;28;20123;-74
2022/03/30 14:25:49;;;;;;;4.78;0.82;;;;;;;;;;5085587;28;20052;-74
2022/03/30 14:28:17;;;;;;;4.72;0.68;;;;;;;;;;5083636;28;20105;-73
2022/03/30 14:30:45;;;;;;;2.53;0.70;;;;;;;;;;5081778;28;20044;-73
2022/03/30 14:33:13;;;;;;;6.03;0.90;;;;;;;;;;5087752;28;20086;-73
2022/03/30 14:35:41;;;;;;;8.02;2.15;;;;;;;;;;5085694;28;20064;-73
2022/03/30 14:38:09;;;;;;;11.15;1.05;;;;;;;;;;5083650;28;20387;-73
2022/03/30 14:40:37;;;;;;;6.18;0.80;;;;;;;;;;5076725;28;20135;-73
2022/03/30 14:43:05;;;;;;;5.25;0.90;;;;;;;;;;5081337;28;20403;-73
2022/03/30 14:45:32;;;;;;;6.57;1.05;;;;;;;;;;5082699;28;20113;-73
2022/03/30 14:48:01;;;;;;;8.18;0.70;;;;;;;;;;5085142;28;20044;-73
2022/03/30 14:50:28;;;;;;;4.18;0.70;;;;;;;;;;5082228;28;20048;-73
2022/03/30 14:52:56;;;;;;;4.50;1.20;;;;;;;;;;5079987;28;20053;-73
2022/03/30 14:55:23;;;;;;;16.75;1.02;;;;;;;;;;5081757;28;20048;-73
2022/03/30 14:57:52;;;;;;;9.25;1.50;;;;;;;;;;5080502;28;20507;-73